createdAt,value
2023-01-06T00:01:36.367Z,17.20
2023-01-06T00:06:37.276Z,6.55
2023-01-06T00:09:05.091Z,11.93
2023-01-06T00:11:39.071Z,11.48
2023-01-06T00:14:06.542Z,5.40
2023-01-06T00:19:07.496Z,6.85
2023-01-06T00:24:08.129Z,9.23
2023-01-06T00:26:35.307Z,8.38
2023-01-06T00:29:09.107Z,10.10
2023-01-06T00:31:37.492Z,11.18
2023-01-06T00:34:18.075Z,7.05
2023-01-06T00:36:45.377Z,8.70
2023-01-06T00:39:13.312Z,10.02
2023-01-06T00:42:06.258Z,12.30
2023-01-06T00:44:34.546Z,10.68
2023-01-06T00:47:08.117Z,8.40
2023-01-06T00:49:35.394Z,5.55
2023-01-06T00:52:02.656Z,11.00
2023-01-06T00:54:36.015Z,12.63
2023-01-06T00:57:03.310Z,9.25
2023-01-06T00:59:37.099Z,10.90
2023-01-06T01:02:04.439Z,7.03
2023-01-06T01:07:05.007Z,4.85
2023-01-06T01:09:32.527Z,8.32
2023-01-06T01:12:22.134Z,11.35
2023-01-06T01:14:50.320Z,3.47
2023-01-06T01:17:26.189Z,7.95
2023-01-06T01:19:55.477Z,15.13
2023-01-06T01:22:30.172Z,6.68
2023-01-06T01:24:57.537Z,14.40
2023-01-06T01:29:58.089Z,9.10
2023-01-06T01:32:25.765Z,8.27
2023-01-06T01:35:06.227Z,8.38
2023-01-06T01:37:33.406Z,17.63
2023-01-06T01:40:00.531Z,5.88
2023-01-06T01:42:34.019Z,8.43
2023-01-06T01:45:02.672Z,4.95
2023-01-06T01:47:40.195Z,7.57
2023-01-06T01:50:16.163Z,4.43
2023-01-06T01:52:51.014Z,9.07
2023-01-06T01:55:18.970Z,5.35
2023-01-06T01:57:49.095Z,10.68
2023-01-06T02:00:23.031Z,7.50
2023-01-06T02:02:50.369Z,8.50
2023-01-06T02:07:51.391Z,8.48
2023-01-06T02:10:27.081Z,6.50
2023-01-06T02:13:01.281Z,9.18
2023-01-06T02:15:39.077Z,12.02
2023-01-06T02:18:19.239Z,7.93
2023-01-06T02:21:00.094Z,12.00
2023-01-06T02:23:52.017Z,10.52
2023-01-06T02:26:25.363Z,8.68
2023-01-06T02:29:10.969Z,6.60
2023-01-06T02:31:47.640Z,9.20
2023-01-06T02:34:40.969Z,10.18
2023-01-06T02:37:30.353Z,7.70
2023-01-06T02:40:18.974Z,8.90
2023-01-06T02:45:37.964Z,12.40
2023-01-06T02:48:13.946Z,9.05
2023-01-06T02:50:49.952Z,10.57
2023-01-06T02:53:17.134Z,9.63
2023-01-06T02:55:51.984Z,7.28
2023-01-06T02:58:34.850Z,5.75
2023-01-06T03:01:12.086Z,9.60
2023-01-06T03:03:42.261Z,7.07
2023-01-06T03:06:19.108Z,4.53
2023-01-06T03:08:47.113Z,8.25
2023-01-06T03:11:14.626Z,9.85
2023-01-06T03:13:47.976Z,8.18
2023-01-06T03:16:15.683Z,6.53
2023-01-06T03:18:49.967Z,7.35
2023-01-06T03:21:19.298Z,9.48
2023-01-06T03:23:53.095Z,9.30
2023-01-06T03:26:20.351Z,8.35
2023-01-06T03:28:47.514Z,6.43
2023-01-06T03:31:23.054Z,3.25
2023-01-06T03:33:57.022Z,7.82
2023-01-06T03:36:57.038Z,8.50
2023-01-06T03:39:24.259Z,8.65
2023-01-06T03:42:35.326Z,9.07
2023-01-06T03:45:25.135Z,5.50
2023-01-06T03:48:14.105Z,6.75
2023-01-06T03:50:43.953Z,11.07
2023-01-06T03:53:25.039Z,8.70
2023-01-06T03:55:55.632Z,7.20
2023-01-06T03:58:30.046Z,7.72
2023-01-06T04:00:58.156Z,8.15
2023-01-06T04:03:33.226Z,7.00
2023-01-06T04:06:00.403Z,6.63
2023-01-06T04:08:27.705Z,5.20
2023-01-06T04:11:01.201Z,9.55
2023-01-06T04:13:28.352Z,5.53
2023-01-06T04:15:55.530Z,11.30
2023-01-06T04:18:29.138Z,6.22
2023-01-06T04:21:02.995Z,7.60
2023-01-06T04:23:33.098Z,6.22
2023-01-06T04:26:00.341Z,11.75
2023-01-06T04:28:34.069Z,7.53
2023-01-06T04:31:01.903Z,2.90
2023-01-06T04:33:36.085Z,9.80
2023-01-06T04:36:10.089Z,5.65
2023-01-06T04:38:44.172Z,6.70
2023-01-06T04:41:11.942Z,4.40
2023-01-06T04:43:46.219Z,6.97
2023-01-06T04:46:13.398Z,11.18
2023-01-06T04:48:40.519Z,10.77
2023-01-06T04:51:15.175Z,10.63
2023-01-06T04:53:42.358Z,4.38
2023-01-06T04:56:17.236Z,3.47
2023-01-06T04:58:44.495Z,12.40
2023-01-06T05:01:12.393Z,5.30
2023-01-06T05:03:46.127Z,9.55
2023-01-06T05:06:20.021Z,6.00
2023-01-06T05:08:47.348Z,4.15
2023-01-06T05:11:15.708Z,12.82
2023-01-06T05:13:50.161Z,8.07
2023-01-06T05:16:18.518Z,12.05
2023-01-06T05:18:52.200Z,10.43
2023-01-06T05:21:19.365Z,5.65
2023-01-06T05:23:46.584Z,17.88
2023-01-06T05:26:23.080Z,5.43
2023-01-06T05:28:50.746Z,4.07
2023-01-06T05:31:25.243Z,7.63
2023-01-06T05:34:12.973Z,4.90
2023-01-06T05:36:47.079Z,4.43
2023-01-06T05:39:14.247Z,7.18
2023-01-06T05:41:41.390Z,5.72
2023-01-06T05:44:15.177Z,7.25
2023-01-06T05:46:42.437Z,6.35
2023-01-06T05:49:09.889Z,4.50
2023-01-06T05:51:44.046Z,6.28
2023-01-06T05:54:11.299Z,6.80
2023-01-06T05:56:45.222Z,10.85
2023-01-06T05:59:12.377Z,4.93
2023-01-06T06:01:39.549Z,5.85
2023-01-06T06:04:13.153Z,3.22
2023-01-06T06:06:40.317Z,3.70
2023-01-06T06:09:14.127Z,4.80
2023-01-06T06:11:41.405Z,4.82
2023-01-06T06:14:10.706Z,6.30
2023-01-06T06:16:44.291Z,4.90
2023-01-06T06:19:12.683Z,4.22
2023-01-06T06:21:46.387Z,5.55
2023-01-06T06:24:13.636Z,10.80
2023-01-06T06:26:40.880Z,7.28
2023-01-06T06:29:15.199Z,4.47
2023-01-06T06:31:42.413Z,1.88
2023-01-06T06:34:29.219Z,6.25
2023-01-06T06:36:56.376Z,3.55
2023-01-06T06:39:23.511Z,7.65
2023-01-06T06:41:57.103Z,5.40
2023-01-06T06:44:24.312Z,12.02
2023-01-06T06:46:58.081Z,5.63
2023-01-06T06:49:25.270Z,3.83
2023-01-06T06:51:53.837Z,4.70
2023-01-06T06:54:29.100Z,3.83
2023-01-06T06:56:57.034Z,2.35
2023-01-06T06:59:24.132Z,4.43
2023-01-06T07:01:58.207Z,8.00
2023-01-06T07:04:25.456Z,5.65
2023-01-06T07:06:59.063Z,3.97
2023-01-06T07:09:26.378Z,4.90
2023-01-06T07:12:00.139Z,5.95
2023-01-06T07:14:27.501Z,5.55
2023-01-06T07:19:28.009Z,6.47
2023-01-06T07:21:55.367Z,6.38
2023-01-06T07:24:29.297Z,5.30
2023-01-06T07:26:56.633Z,2.97
2023-01-06T07:29:23.709Z,8.02
2023-01-06T07:31:56.993Z,5.03
2023-01-06T07:34:44.091Z,7.60
2023-01-06T07:37:18.079Z,8.85
2023-01-06T07:39:45.394Z,4.57
2023-01-06T07:42:13.333Z,4.93
2023-01-06T07:44:47.067Z,5.10
2023-01-06T07:47:14.609Z,6.25
2023-01-06T07:49:48.042Z,7.60
2023-01-06T07:52:15.333Z,15.38
2023-01-06T07:54:42.453Z,6.53
2023-01-06T07:57:17.926Z,3.28
2023-01-06T07:59:45.273Z,8.02
2023-01-06T08:02:19.101Z,7.70
2023-01-06T08:04:46.336Z,6.78
2023-01-06T08:07:13.830Z,3.28
2023-01-06T08:12:14.302Z,8.48
2023-01-06T08:14:48.087Z,5.82
2023-01-06T08:17:15.457Z,7.65
2023-01-06T08:22:16.011Z,5.55
2023-01-06T08:24:43.700Z,6.15
2023-01-06T08:27:17.045Z,2.47
2023-01-06T08:29:44.513Z,3.83
2023-01-06T08:34:45.172Z,8.27
2023-01-06T08:37:19.019Z,5.35
2023-01-06T08:39:53.216Z,4.88
2023-01-06T08:42:20.423Z,4.45
2023-01-06T08:44:48.051Z,8.52
2023-01-06T08:47:29.134Z,3.60
2023-01-06T08:49:56.288Z,11.43
2023-01-06T08:52:23.382Z,7.55
2023-01-06T08:54:57.117Z,4.95
2023-01-06T08:57:24.440Z,5.32
2023-01-06T08:59:51.539Z,4.35
2023-01-06T09:02:25.165Z,5.28
2023-01-06T09:04:52.390Z,6.65
2023-01-06T09:07:19.512Z,3.17
2023-01-06T09:09:53.136Z,6.78
2023-01-06T09:12:20.288Z,5.20
2023-01-06T09:14:47.411Z,6.65
2023-01-06T09:17:21.099Z,2.60
2023-01-06T09:19:48.245Z,5.22
2023-01-06T09:22:22.223Z,3.10
2023-01-06T09:24:49.409Z,4.40
2023-01-06T09:27:16.589Z,2.03
2023-01-06T09:29:50.136Z,4.03
2023-01-06T09:32:17.282Z,1.95
2023-01-06T09:34:44.450Z,5.05
2023-01-06T09:37:18.179Z,5.10
2023-01-06T09:39:45.781Z,4.65
2023-01-06T09:42:32.140Z,3.08
2023-01-06T09:45:01.331Z,4.22
2023-01-06T09:47:40.131Z,2.67
2023-01-06T09:50:15.668Z,7.43
2023-01-06T09:52:56.204Z,2.00
2023-01-06T09:55:33.041Z,4.63
2023-01-06T09:58:03.841Z,5.45
2023-01-06T10:00:51.017Z,7.07
2023-01-06T10:03:19.765Z,3.08
2023-01-06T10:06:00.084Z,3.50
2023-01-06T10:08:33.530Z,5.47
2023-01-06T10:11:30.080Z,3.03
2023-01-06T10:14:11.360Z,6.32
2023-01-06T10:16:57.070Z,3.53
2023-01-06T10:19:44.792Z,7.45
2023-01-06T10:22:22.100Z,5.23
2023-01-06T10:25:13.269Z,5.10
2023-01-06T10:27:48.098Z,5.43
2023-01-06T10:30:30.323Z,5.20
2023-01-06T10:33:05.340Z,4.78
2023-01-06T10:35:33.567Z,3.55
2023-01-06T10:38:04.168Z,4.65
2023-01-06T10:40:39.184Z,2.70
2023-01-06T10:43:11.135Z,8.35
2023-01-06T10:45:45.208Z,2.78
2023-01-06T10:48:25.559Z,5.65
2023-01-06T10:50:59.205Z,6.43
2023-01-06T10:53:26.457Z,4.00
2023-01-06T10:55:58.010Z,3.55
2023-01-06T10:58:35.149Z,4.53
2023-01-06T11:01:12.168Z,3.83
2023-01-06T11:03:50.115Z,7.25
2023-01-06T11:06:28.712Z,7.20
2023-01-06T11:09:03.189Z,3.22
2023-01-06T11:11:30.706Z,5.20
2023-01-06T11:14:06.236Z,5.65
2023-01-06T11:16:41.137Z,9.02
2023-01-06T11:19:30.087Z,7.22
2023-01-06T11:21:57.195Z,5.68
2023-01-06T11:24:32.199Z,3.65
2023-01-06T11:27:14.890Z,2.72
2023-01-06T11:29:49.173Z,8.15
2023-01-06T11:32:18.992Z,5.32
2023-01-06T11:35:02.252Z,8.27
2023-01-06T11:37:30.681Z,7.13
2023-01-06T11:40:10.193Z,11.45
2023-01-06T11:42:46.146Z,6.85
2023-01-06T11:45:39.113Z,5.32
2023-01-06T11:48:08.531Z,5.93
2023-01-06T11:50:35.681Z,4.13
2023-01-06T11:53:11.227Z,5.95
2023-01-06T11:55:39.620Z,6.35
2023-01-06T11:58:19.221Z,7.80
2023-01-06T12:00:48.749Z,6.43
2023-01-06T12:03:27.342Z,4.95
2023-01-06T12:06:07.542Z,7.03
2023-01-06T12:08:48.196Z,3.55
2023-01-06T12:11:21.208Z,2.15
2023-01-06T12:14:13.127Z,7.70
2023-01-06T12:17:06.561Z,2.83
2023-01-06T12:19:46.133Z,5.47
2023-01-06T12:22:27.070Z,6.55
2023-01-06T12:25:03.246Z,4.60
2023-01-06T12:27:49.494Z,10.13
2023-01-06T12:30:42.407Z,5.78
2023-01-06T12:33:19.058Z,6.30
2023-01-06T12:35:55.210Z,6.00
2023-01-06T12:38:46.055Z,8.98
2023-01-06T12:41:17.758Z,5.53
2023-01-06T12:43:56.085Z,8.57
2023-01-06T12:46:30.225Z,5.97
2023-01-06T12:49:10.082Z,6.00
2023-01-06T12:51:42.499Z,6.50
2023-01-06T12:54:27.051Z,5.38
2023-01-06T12:57:13.130Z,6.28
2023-01-06T13:00:06.647Z,2.30
2023-01-06T13:02:45.949Z,6.28
2023-01-06T13:05:35.077Z,9.23
2023-01-06T13:08:19.286Z,7.63
2023-01-06T13:10:54.081Z,5.30
2023-01-06T13:13:21.256Z,4.13
2023-01-06T13:15:48.487Z,5.82
2023-01-06T13:18:38.153Z,8.68
2023-01-06T13:21:08.763Z,11.82
2023-01-06T13:23:58.218Z,9.70
2023-01-06T13:26:25.431Z,6.72
2023-01-06T13:29:18.319Z,6.72
2023-01-06T13:31:45.603Z,4.70
2023-01-06T13:34:49.123Z,6.30
2023-01-06T13:37:23.035Z,8.15
2023-01-06T13:40:07.774Z,4.93
2023-01-06T13:42:38.680Z,9.10
2023-01-06T13:45:15.292Z,4.68
2023-01-06T13:47:50.529Z,5.72
2023-01-06T13:50:26.225Z,7.68
2023-01-06T13:52:54.352Z,4.50
2023-01-06T13:55:45.243Z,5.00
2023-01-06T13:58:25.507Z,4.80
2023-01-06T14:01:13.479Z,6.32
2023-01-06T14:03:41.923Z,4.78
2023-01-06T14:06:24.246Z,6.07
2023-01-06T14:09:01.094Z,7.18
2023-01-06T14:11:39.316Z,4.75
2023-01-06T14:14:07.877Z,5.10
2023-01-06T14:17:02.172Z,6.30
2023-01-06T14:19:37.738Z,28.10
2023-01-06T14:22:25.217Z,10.85
2023-01-06T14:24:53.891Z,7.57
2023-01-06T14:27:46.288Z,4.72
2023-01-06T14:30:26.660Z,4.18
2023-01-06T14:33:00.376Z,8.48
2023-01-06T14:35:32.393Z,3.25
2023-01-06T14:38:10.231Z,4.55
2023-01-06T14:40:47.272Z,6.35
2023-01-06T14:43:42.576Z,4.10
2023-01-06T14:46:25.158Z,4.20
2023-01-06T14:48:58.407Z,5.15
2023-01-06T14:51:32.082Z,4.30
2023-01-06T14:54:01.015Z,6.85
2023-01-06T14:56:36.190Z,14.55
2023-01-06T14:59:10.925Z,5.50
2023-01-06T15:01:45.372Z,5.05
2023-01-06T15:04:23.768Z,5.40
2023-01-06T15:07:05.080Z,4.93
2023-01-06T15:09:32.538Z,2.97
2023-01-06T15:14:34.580Z,4.35
2023-01-06T15:17:16.131Z,5.35
2023-01-06T15:19:44.607Z,6.85
2023-01-06T15:22:13.897Z,5.03
2023-01-06T15:24:50.150Z,5.47
2023-01-06T15:27:18.622Z,3.00
2023-01-06T15:30:01.084Z,4.28
2023-01-06T15:32:28.573Z,4.32
2023-01-06T15:34:57.984Z,3.83
2023-01-06T15:37:33.199Z,3.92
2023-01-06T15:40:00.436Z,3.97
2023-01-06T15:42:28.018Z,3.88
2023-01-06T15:45:03.668Z,4.28
2023-01-06T15:47:40.260Z,6.18
2023-01-06T15:50:15.152Z,4.82
2023-01-06T15:52:47.186Z,4.93
2023-01-06T15:55:33.262Z,4.22
2023-01-06T15:58:02.397Z,5.68
2023-01-06T16:00:38.148Z,3.70
2023-01-06T16:03:06.546Z,3.95
2023-01-06T16:05:49.830Z,4.20
2023-01-06T16:08:19.504Z,5.47
2023-01-06T16:10:53.236Z,3.53
2023-01-06T16:13:24.003Z,15.70
2023-01-06T16:16:00.246Z,5.93
2023-01-06T16:18:35.252Z,5.30
2023-01-06T16:21:23.200Z,3.95
2023-01-06T16:23:51.733Z,6.10
2023-01-06T16:26:20.043Z,4.00
2023-01-06T16:28:58.191Z,5.57
2023-01-06T16:34:01.291Z,4.20
2023-01-06T16:36:28.525Z,4.70
2023-01-06T16:39:02.217Z,5.20
2023-01-06T16:41:29.361Z,4.75
2023-01-06T16:43:56.550Z,3.13
2023-01-06T16:46:34.307Z,7.43
2023-01-06T16:49:13.308Z,4.05
2023-01-06T16:51:40.546Z,2.90
2023-01-06T16:54:11.576Z,2.83
2023-01-06T16:56:45.330Z,3.33
2023-01-06T16:59:13.783Z,4.30
2023-01-06T17:01:41.121Z,4.55
2023-01-06T17:04:18.196Z,2.78
2023-01-06T17:06:46.329Z,3.80
2023-01-06T17:09:27.238Z,3.67
2023-01-06T17:11:54.486Z,4.07
2023-01-06T17:14:22.465Z,3.33
2023-01-06T17:17:01.210Z,4.50
2023-01-06T17:19:38.918Z,5.50
2023-01-06T17:22:29.229Z,4.10
2023-01-06T17:24:59.345Z,3.78
2023-01-06T17:27:37.319Z,4.10
2023-01-06T17:30:08.459Z,10.73
2023-01-06T17:32:46.262Z,7.75
2023-01-06T17:35:33.663Z,5.05
2023-01-06T17:38:10.164Z,5.85
2023-01-06T17:40:45.289Z,4.80
2023-01-06T17:43:23.341Z,4.85
2023-01-06T17:45:57.152Z,5.35
2023-01-06T17:48:24.475Z,5.00
2023-01-06T17:50:53.930Z,5.32
2023-01-06T17:53:46.186Z,11.88
2023-01-06T17:56:13.438Z,4.97
2023-01-06T17:58:49.328Z,5.35
2023-01-06T18:01:20.300Z,4.43
2023-01-06T18:03:54.220Z,4.05
2023-01-06T18:06:30.256Z,5.80
2023-01-06T18:09:13.222Z,5.45
2023-01-06T18:11:50.683Z,4.72
2023-01-06T18:14:26.208Z,2.33
2023-01-06T18:17:18.104Z,6.78
2023-01-06T18:19:52.191Z,5.45
2023-01-06T18:22:21.308Z,4.35
2023-01-06T18:24:56.303Z,6.63
2023-01-06T18:27:24.797Z,6.60
2023-01-06T18:29:59.218Z,9.60
2023-01-06T18:32:31.732Z,3.85
2023-01-06T18:35:07.680Z,4.13
2023-01-06T18:37:35.796Z,7.13
2023-01-06T18:40:04.957Z,6.68
2023-01-06T18:42:43.232Z,6.22
2023-01-06T18:45:19.824Z,8.35
2023-01-06T18:47:57.219Z,4.18
2023-01-06T18:50:32.655Z,5.90
2023-01-06T18:53:13.235Z,8.60
2023-01-06T18:55:45.294Z,10.00
2023-01-06T18:58:12.387Z,4.03
2023-01-06T19:00:50.204Z,9.35
2023-01-06T19:03:36.368Z,7.68
2023-01-06T19:06:30.191Z,5.00
2023-01-06T19:08:57.624Z,6.30
2023-01-06T19:11:33.269Z,5.25
2023-01-06T19:14:01.757Z,5.85
2023-01-06T19:16:30.864Z,9.07
2023-01-06T19:19:17.195Z,6.05
2023-01-06T19:21:44.464Z,5.35
2023-01-06T19:24:36.201Z,8.75
2023-01-06T19:27:10.205Z,10.60
2023-01-06T19:29:44.215Z,7.47
2023-01-06T19:32:15.353Z,13.27
2023-01-06T19:34:49.189Z,11.63
2023-01-06T19:37:17.460Z,6.75
2023-01-06T19:39:57.261Z,13.70
2023-01-06T19:42:29.584Z,7.47
2023-01-06T19:45:08.253Z,7.93
2023-01-06T19:47:39.488Z,4.60
2023-01-06T19:50:25.424Z,10.38
2023-01-06T19:53:03.131Z,7.35
2023-01-06T19:55:31.419Z,5.10
2023-01-06T19:58:07.699Z,7.13
2023-01-06T20:00:43.929Z,10.13
2023-01-06T20:03:29.160Z,6.65
2023-01-06T20:05:56.465Z,6.57
2023-01-06T20:08:30.183Z,12.38
2023-01-06T20:10:57.444Z,16.33
2023-01-06T20:13:24.610Z,19.95
2023-01-06T20:15:58.294Z,15.45
2023-01-06T20:18:32.132Z,11.30
2023-01-06T20:21:06.718Z,10.85
2023-01-06T20:23:33.963Z,8.25
2023-01-06T20:26:07.914Z,11.15
2023-01-06T20:28:35.155Z,10.77
2023-01-06T20:31:02.394Z,12.13
2023-01-06T20:33:36.195Z,15.77
2023-01-06T20:36:03.768Z,15.20
2023-01-06T20:41:05.327Z,15.73
2023-01-06T20:43:32.408Z,15.80
2023-01-06T20:46:06.645Z,14.40
2023-01-06T20:48:33.863Z,17.67
2023-01-06T20:51:07.817Z,9.27
2023-01-06T20:53:35.365Z,15.10
2023-01-06T20:58:36.290Z,15.38
2023-01-06T21:01:03.566Z,18.55
2023-01-06T21:03:30.742Z,26.15
2023-01-06T21:06:04.266Z,17.50
2023-01-06T21:08:31.472Z,20.40
2023-01-06T21:11:05.385Z,27.83
2023-01-06T21:13:32.552Z,20.77
2023-01-06T21:15:59.863Z,20.83
2023-01-06T21:18:34.823Z,20.60
2023-01-06T21:21:08.346Z,17.42
2023-01-06T21:23:42.211Z,11.18
2023-01-06T21:26:16.341Z,17.17
2023-01-06T21:28:43.605Z,17.35
2023-01-06T21:31:10.947Z,9.35
2023-01-06T21:33:44.172Z,18.75
2023-01-06T21:36:11.641Z,13.68
2023-01-06T21:41:31.054Z,19.27
2023-01-06T21:44:04.183Z,11.70
2023-01-06T21:46:32.350Z,11.82
2023-01-06T21:48:59.511Z,15.00
2023-01-06T21:51:34.372Z,13.18
2023-01-06T21:54:01.847Z,12.90
2023-01-06T21:56:29.200Z,13.40
2023-01-06T21:59:03.366Z,16.80
2023-01-06T22:01:30.699Z,14.52
2023-01-06T22:04:04.379Z,15.38
2023-01-06T22:06:31.599Z,11.00
2023-01-06T22:09:00.401Z,16.75
2023-01-06T22:11:35.272Z,12.77
2023-01-06T22:14:02.602Z,12.52
2023-01-06T22:16:36.428Z,17.70
2023-01-06T22:19:25.187Z,7.55
2023-01-06T22:21:59.359Z,17.33
2023-01-06T22:24:26.618Z,17.20
2023-01-06T22:26:53.727Z,13.88
2023-01-06T22:29:27.246Z,18.88
2023-01-06T22:31:54.448Z,9.55
2023-01-06T22:34:28.270Z,11.25
2023-01-06T22:37:02.160Z,12.95
2023-01-06T22:39:29.454Z,15.85
2023-01-06T22:42:03.279Z,19.65
2023-01-06T22:44:30.462Z,27.90
2023-01-06T22:46:57.713Z,26.92
2023-01-06T22:49:31.289Z,27.65
2023-01-06T22:51:58.622Z,28.52
2023-01-06T22:54:25.776Z,33.00
2023-01-06T22:56:59.323Z,39.65
2023-01-06T22:59:26.671Z,36.30
2023-01-06T23:02:00.424Z,61.38
2023-01-06T23:04:27.714Z,61.72
2023-01-06T23:06:54.801Z,64.90
2023-01-06T23:09:28.327Z,71.20
2023-01-06T23:11:55.503Z,63.47
2023-01-06T23:14:29.270Z,77.90
2023-01-06T23:16:56.436Z,73.72
2023-01-06T23:19:36.353Z,76.40
2023-01-06T23:22:03.697Z,75.20
2023-01-06T23:24:30.840Z,71.05
2023-01-06T23:27:04.256Z,68.65
2023-01-06T23:29:31.728Z,74.95
2023-01-06T23:32:05.267Z,83.18
2023-01-06T23:34:39.216Z,81.03
2023-01-06T23:37:13.418Z,79.55
2023-01-06T23:39:40.568Z,85.43
2023-01-06T23:42:07.988Z,85.22
2023-01-06T23:44:41.285Z,76.38
2023-01-06T23:47:08.777Z,77.40
2023-01-06T23:49:42.333Z,75.20
2023-01-06T23:52:09.480Z,97.38
2023-01-06T23:54:36.560Z,76.10
2023-01-06T23:57:10.277Z,98.95
2023-01-06T23:59:37.538Z,128.00
